Aeroporto :
LOGIN :

Iscrizione | Disclaimer

   EN    FR    IT 

 










Sommario :    VFR   VFR Marginale   IFR   IFR Intensivo   IFR Molto Intensivo
Visibilità : 
Base nubi : 
>= 8 km
>= 3000ft
5 / 8 km
1000 / 3000 ft
1500m / 5 km
500 / 1000 ft
800 / 1500m
200 / 500 ft
< 800m
< 200 ft
Simboli :   Temporali  Nebbia  Neve Forte  Precipitazioni Forti  Vento > 20 kt
SIGMETs :   Varie  Temporali  Ghiacco  Turbolenza  Onda orograficha  Ceneri Vulcaniche






- Altitudine del aeroporto : 121 ft
- Codice IATA : HUY


EGNJ - Humberside

ULTIMO METAR :
  • 171820Z 23020KT 9999 FEW036 07/03 Q1007

METARs OBSOLETI :
  • 171750Z 22016KT 9999 FEW030 SCT040 08/03 Q1006
  • 171720Z 24015KT 9999 FEW030 SCT040 09/03 Q1006
  • 171650Z 25017KT 9999 FEW030 SCT040CB 09/03 Q1005
  • 171620Z 25017KT 9999 FEW028 SCT040 10/03 Q1005
  • 171550Z 25016KT 9999 FEW028 BKN040 10/03 Q1004

TAF TAF EGNJ
Valido dal 17 a 18 ore il 18 a 03 ore UTC


171656Z 1718/1803 25018G28KT 9999 FEW020
TEMPO 1718/1723 7000 SHRA
ATIS : +44 1652 682 020



MetMap, La meteo Aeronautica in un colpo d'occhio ! - Copyright ORBIFLY Dicembre 2007 - Disclaimer

ORBIFLY MET'MAP TEAM :

Programmazione e sviluppo : Alexandra Zaïnal
Concezione : Baudouin d'Aumeries
Aiuto per la programmazione : Marc-Olivier Méhu
Supporto tecnico e logistico : Manuel Goepfert
Aiuto per la traduzione : Arnaldo La Scala

Contatto : metmap@orbifly.com




FONTI E CREDITI :

   NOAA